OAL017 LBSF-LGAV
Flight info
| Callsign | OAL017 |
|---|---|
| Flight time | 0h 51m |
| Altitude | 35000 |
| Route | DILVO NIKTI UN127 LMO/N0450F340 UG33 NEVRA |
| Aircraft | A319/M-SDE3FGHIRWY/LB1 |
Departure
| Time | 2026-05-06 22:44 |
|---|---|
| Airport | Sofia Airport (LBSF) |
Arrival
| Time | 2026-05-06 23:35 |
|---|---|
| Airport | Athens Eleftherios Venizelos International Airport (LGAV) |
| Time | Latitude | Longitude | Altitude | Speed | Heading |
|---|---|---|---|---|---|
| 2026-05-06 22:37 | 42.69139 | 23.40036 | 1755 ft | 0 kts | 195° |
| 2026-05-06 22:40 | 42.69135 | 23.40034 | 1755 ft | 3 kts | 195° |
| 2026-05-06 22:40 | 42.69116 | 23.39999 | 1748 ft | 7 kts | 236° |
| 2026-05-06 22:40 | 42.69098 | 23.39917 | 1755 ft | 11 kts | 283° |
| 2026-05-06 22:41 | 42.69171 | 23.39623 | 1749 ft | 21 kts | 294° |
| 2026-05-06 22:41 | 42.69309 | 23.39562 | 1749 ft | 24 kts | 357° |
| 2026-05-06 22:41 | 42.69498 | 23.39569 | 1746 ft | 30 kts | 5° |
| 2026-05-06 22:42 | 42.69663 | 23.39587 | 1754 ft | 0 kts | 4° |
| 2026-05-06 22:43 | 42.69668 | 23.39588 | 1754 ft | 2 kts | 4° |
| 2026-05-06 22:43 | 42.69698 | 23.39591 | 1748 ft | 7 kts | 4° |
| 2026-05-06 22:43 | 42.69760 | 23.39598 | 1755 ft | 11 kts | 9° |
| 2026-05-06 22:43 | 42.69768 | 23.39705 | 1754 ft | 15 kts | 95° |
| 2026-05-06 22:44 | 42.69753 | 23.39925 | 1756 ft | 52 kts | 95° |
| 2026-05-06 22:44 | 42.69693 | 23.40862 | 1748 ft | 142 kts | 95° |
| 2026-05-06 22:44 | 42.69597 | 23.42481 | 2036 ft | 186 kts | 95° |
| 2026-05-06 22:44 | 42.69470 | 23.44255 | 2897 ft | 193 kts | 96° |
| 2026-05-06 22:45 | 42.69259 | 23.46095 | 3842 ft | 201 kts | 100° |
| 2026-05-06 22:45 | 42.69039 | 23.48067 | 4620 ft | 223 kts | 97° |
| 2026-05-06 22:45 | 42.68568 | 23.50194 | 5348 ft | 250 kts | 118° |
| 2026-05-06 22:45 | 42.67587 | 23.52271 | 5955 ft | 271 kts | 128° |
| 2026-05-06 22:46 | 42.66389 | 23.54285 | 6922 ft | 277 kts | 131° |
| 2026-05-06 22:46 | 42.65128 | 23.56290 | 7913 ft | 281 kts | 131° |
| 2026-05-06 22:46 | 42.63849 | 23.58335 | 8913 ft | 286 kts | 131° |
| 2026-05-06 22:46 | 42.62567 | 23.60443 | 9684 ft | 293 kts | 130° |
| 2026-05-06 22:47 | 42.61286 | 23.62603 | 9948 ft | 294 kts | 130° |
| 2026-05-06 22:47 | 42.59978 | 23.64806 | 10240 ft | 311 kts | 130° |
| 2026-05-06 22:47 | 42.58561 | 23.67172 | 10663 ft | 334 kts | 130° |
| 2026-05-06 22:47 | 42.57074 | 23.69663 | 11387 ft | 344 kts | 130° |
| 2026-05-06 22:48 | 42.56066 | 23.71337 | 11945 ft | 348 kts | 130° |
| 2026-05-06 22:48 | 42.54015 | 23.74729 | 13081 ft | 354 kts | 130° |
| 2026-05-06 22:48 | 42.52430 | 23.77321 | 13935 ft | 359 kts | 130° |
| 2026-05-06 22:48 | 42.50821 | 23.79935 | 14675 ft | 364 kts | 130° |
| 2026-05-06 22:49 | 42.49026 | 23.82381 | 15387 ft | 370 kts | 143° |
| 2026-05-06 22:49 | 42.46761 | 23.84072 | 16084 ft | 375 kts | 156° |
| 2026-05-06 22:49 | 42.45140 | 23.85041 | 16579 ft | 378 kts | 157° |
| 2026-05-06 22:49 | 42.42712 | 23.86473 | 17317 ft | 383 kts | 157° |
| 2026-05-06 22:50 | 42.40258 | 23.87932 | 18030 ft | 388 kts | 156° |
| 2026-05-06 22:50 | 42.37780 | 23.89433 | 18712 ft | 392 kts | 156° |
| 2026-05-06 22:50 | 42.34470 | 23.91478 | 19543 ft | 398 kts | 155° |
| 2026-05-06 22:50 | 42.32767 | 23.92543 | 19961 ft | 401 kts | 156° |
| 2026-05-06 22:51 | 42.30133 | 23.93840 | 20575 ft | 405 kts | 166° |
| 2026-05-06 22:51 | 42.27365 | 23.94609 | 21196 ft | 408 kts | 171° |
| 2026-05-06 22:51 | 42.24551 | 23.95299 | 21804 ft | 413 kts | 171° |
| 2026-05-06 22:51 | 42.21708 | 23.95988 | 22411 ft | 418 kts | 171° |
| 2026-05-06 22:52 | 42.18834 | 23.96680 | 22993 ft | 422 kts | 171° |
| 2026-05-06 22:52 | 42.15930 | 23.97380 | 23570 ft | 426 kts | 171° |
| 2026-05-06 22:52 | 42.13039 | 23.98077 | 24052 ft | 430 kts | 171° |
| 2026-05-06 22:52 | 42.10040 | 23.98804 | 24512 ft | 434 kts | 171° |
| 2026-05-06 22:53 | 42.07089 | 23.99521 | 24920 ft | 438 kts | 172° |
| 2026-05-06 22:53 | 42.04078 | 24.00254 | 25318 ft | 442 kts | 172° |
| 2026-05-06 22:53 | 42.01033 | 24.00994 | 25753 ft | 447 kts | 172° |
| 2026-05-06 22:53 | 41.97960 | 24.01738 | 26171 ft | 451 kts | 172° |
| 2026-05-06 22:54 | 41.94858 | 24.02485 | 26596 ft | 455 kts | 172° |
| 2026-05-06 22:54 | 41.91732 | 24.03237 | 27020 ft | 459 kts | 172° |
| 2026-05-06 22:54 | 41.88573 | 24.03999 | 27437 ft | 463 kts | 172° |
| 2026-05-06 22:54 | 41.85389 | 24.04770 | 27839 ft | 467 kts | 172° |
| 2026-05-06 22:55 | 41.82184 | 24.05545 | 28236 ft | 471 kts | 172° |
| 2026-05-06 22:55 | 41.78941 | 24.06327 | 28621 ft | 475 kts | 172° |
| 2026-05-06 22:55 | 41.75677 | 24.07112 | 29016 ft | 479 kts | 172° |
| 2026-05-06 22:55 | 41.72388 | 24.07905 | 29406 ft | 482 kts | 172° |
| 2026-05-06 22:56 | 41.69076 | 24.08703 | 29774 ft | 485 kts | 172° |
| 2026-05-06 22:56 | 41.65741 | 24.09505 | 30135 ft | 489 kts | 172° |
| 2026-05-06 22:56 | 41.62381 | 24.10311 | 30438 ft | 492 kts | 172° |
| 2026-05-06 22:56 | 41.58996 | 24.11123 | 30704 ft | 496 kts | 172° |
| 2026-05-06 22:57 | 41.55634 | 24.12254 | 30988 ft | 502 kts | 163° |
| 2026-05-06 22:57 | 41.52390 | 24.14027 | 31293 ft | 506 kts | 154° |
| 2026-05-06 22:57 | 41.49320 | 24.16345 | 31634 ft | 508 kts | 149° |
| 2026-05-06 22:57 | 41.46281 | 24.18748 | 32063 ft | 507 kts | 149° |
| 2026-05-06 22:58 | 41.43242 | 24.21136 | 32460 ft | 507 kts | 150° |
| 2026-05-06 22:58 | 41.40203 | 24.23513 | 32875 ft | 507 kts | 149° |
| 2026-05-06 22:58 | 41.37167 | 24.25884 | 33277 ft | 506 kts | 149° |
| 2026-05-06 22:58 | 41.34126 | 24.28254 | 33691 ft | 506 kts | 149° |
| 2026-05-06 22:59 | 41.31091 | 24.30620 | 34107 ft | 506 kts | 149° |
| 2026-05-06 22:59 | 41.28054 | 24.32988 | 34488 ft | 506 kts | 149° |
| 2026-05-06 22:59 | 41.25020 | 24.35351 | 34896 ft | 505 kts | 149° |
| 2026-05-06 22:59 | 41.21994 | 24.37702 | 35047 ft | 504 kts | 150° |
| 2026-05-06 23:00 | 41.18980 | 24.40039 | 35094 ft | 500 kts | 150° |
| 2026-05-06 23:00 | 41.13034 | 24.44656 | 35089 ft | 498 kts | 150° |
| 2026-05-06 23:01 | 41.07050 | 24.49297 | 35090 ft | 498 kts | 150° |
| 2026-05-06 23:01 | 41.01063 | 24.53933 | 35085 ft | 498 kts | 150° |
| 2026-05-06 23:02 | 40.95067 | 24.58554 | 35086 ft | 499 kts | 150° |
| 2026-05-06 23:02 | 40.89033 | 24.63085 | 35078 ft | 499 kts | 153° |
| 2026-05-06 23:03 | 40.82800 | 24.67120 | 35078 ft | 498 kts | 156° |
| 2026-05-06 23:03 | 40.76491 | 24.70906 | 35097 ft | 498 kts | 156° |
| 2026-05-06 23:04 | 40.70207 | 24.74770 | 35096 ft | 498 kts | 155° |
| 2026-05-06 23:04 | 40.63963 | 24.78738 | 35093 ft | 498 kts | 155° |
| 2026-05-06 23:05 | 40.57730 | 24.82725 | 35095 ft | 498 kts | 155° |
| 2026-05-06 23:05 | 40.51474 | 24.86672 | 35098 ft | 499 kts | 155° |
| 2026-05-06 23:06 | 40.45255 | 24.90570 | 35098 ft | 498 kts | 155° |
| 2026-05-06 23:06 | 40.39005 | 24.94488 | 35094 ft | 498 kts | 155° |
| 2026-05-06 23:07 | 40.32749 | 24.98402 | 35097 ft | 498 kts | 155° |
| 2026-05-06 23:07 | 40.26493 | 25.02300 | 35106 ft | 498 kts | 155° |
| 2026-05-06 23:08 | 40.20232 | 25.06199 | 35097 ft | 499 kts | 155° |
| 2026-05-06 23:08 | 40.13964 | 25.10089 | 35094 ft | 499 kts | 155° |
| 2026-05-06 23:09 | 40.07697 | 25.13992 | 35077 ft | 499 kts | 155° |
| 2026-05-06 23:09 | 40.01420 | 25.17874 | 35070 ft | 499 kts | 155° |
| 2026-05-06 23:10 | 39.94944 | 25.21030 | 35070 ft | 496 kts | 171° |
| 2026-05-06 23:10 | 39.88133 | 25.21589 | 34970 ft | 488 kts | 189° |
| 2026-05-06 23:10 | 39.84810 | 25.20870 | 34727 ft | 482 kts | 199° |
| 2026-05-06 23:11 | 39.81607 | 25.19628 | 34491 ft | 481 kts | 202° |
| 2026-05-06 23:11 | 39.78394 | 25.18337 | 34252 ft | 482 kts | 202° |
| 2026-05-06 23:11 | 39.75220 | 25.17077 | 34050 ft | 482 kts | 202° |
| 2026-05-06 23:12 | 39.68787 | 25.14551 | 34100 ft | 484 kts | 202° |
| 2026-05-06 23:12 | 39.62332 | 25.12028 | 34106 ft | 484 kts | 202° |
| 2026-05-06 23:13 | 39.55881 | 25.09500 | 34112 ft | 483 kts | 202° |
| 2026-05-06 23:13 | 39.49464 | 25.06981 | 34109 ft | 483 kts | 202° |
| 2026-05-06 23:14 | 39.43016 | 25.04448 | 34109 ft | 483 kts | 202° |
| 2026-05-06 23:14 | 39.36608 | 25.01939 | 34110 ft | 482 kts | 202° |
| 2026-05-06 23:15 | 39.30203 | 24.99451 | 34110 ft | 479 kts | 201° |
| 2026-05-06 23:15 | 39.23843 | 24.96975 | 34112 ft | 477 kts | 201° |
| 2026-05-06 23:16 | 39.17496 | 24.94501 | 34112 ft | 476 kts | 201° |
| 2026-05-06 23:16 | 39.11150 | 24.92039 | 34031 ft | 477 kts | 201° |
| 2026-05-06 23:16 | 39.07977 | 24.90813 | 33428 ft | 477 kts | 201° |
| 2026-05-06 23:17 | 39.04767 | 24.89572 | 32236 ft | 485 kts | 201° |
| 2026-05-06 23:17 | 39.01516 | 24.88316 | 31075 ft | 491 kts | 201° |
| 2026-05-06 23:17 | 38.98228 | 24.87048 | 30179 ft | 493 kts | 201° |
| 2026-05-06 23:17 | 38.94970 | 24.85799 | 29507 ft | 485 kts | 201° |
| 2026-05-06 23:18 | 38.91756 | 24.84568 | 28813 ft | 479 kts | 201° |
| 2026-05-06 23:18 | 38.88589 | 24.83352 | 28137 ft | 472 kts | 201° |
| 2026-05-06 23:18 | 38.85458 | 24.82150 | 27466 ft | 467 kts | 201° |
| 2026-05-06 23:18 | 38.82365 | 24.80960 | 26806 ft | 461 kts | 201° |
| 2026-05-06 23:19 | 38.79305 | 24.79785 | 26162 ft | 457 kts | 201° |
| 2026-05-06 23:19 | 38.76279 | 24.78624 | 25515 ft | 452 kts | 201° |
| 2026-05-06 23:19 | 38.73274 | 24.77472 | 24879 ft | 448 kts | 201° |
| 2026-05-06 23:19 | 38.70301 | 24.76334 | 24266 ft | 444 kts | 201° |
| 2026-05-06 23:20 | 38.67355 | 24.75205 | 23660 ft | 440 kts | 201° |
| 2026-05-06 23:20 | 38.64436 | 24.74089 | 23036 ft | 435 kts | 200° |
| 2026-05-06 23:20 | 38.61553 | 24.72990 | 22490 ft | 429 kts | 200° |
| 2026-05-06 23:20 | 38.58706 | 24.71908 | 21985 ft | 424 kts | 200° |
| 2026-05-06 23:21 | 38.55893 | 24.70839 | 21477 ft | 420 kts | 200° |
| 2026-05-06 23:21 | 38.53102 | 24.69775 | 20981 ft | 417 kts | 200° |
| 2026-05-06 23:21 | 38.50339 | 24.68721 | 20479 ft | 414 kts | 200° |
| 2026-05-06 23:21 | 38.47588 | 24.67673 | 19967 ft | 411 kts | 200° |
| 2026-05-06 23:22 | 38.44855 | 24.66634 | 19450 ft | 408 kts | 200° |
| 2026-05-06 23:22 | 38.42143 | 24.65604 | 18920 ft | 406 kts | 199° |
| 2026-05-06 23:22 | 38.39438 | 24.64578 | 18385 ft | 405 kts | 199° |
| 2026-05-06 23:22 | 38.36743 | 24.63556 | 17791 ft | 403 kts | 199° |
| 2026-05-06 23:23 | 38.34071 | 24.62543 | 17249 ft | 399 kts | 199° |
| 2026-05-06 23:23 | 38.31422 | 24.61541 | 16712 ft | 396 kts | 199° |
| 2026-05-06 23:23 | 38.28794 | 24.60550 | 16176 ft | 392 kts | 199° |
| 2026-05-06 23:23 | 38.26189 | 24.59567 | 15646 ft | 389 kts | 199° |
| 2026-05-06 23:24 | 38.23604 | 24.58590 | 15112 ft | 386 kts | 199° |
| 2026-05-06 23:24 | 38.21044 | 24.57624 | 14586 ft | 383 kts | 199° |
| 2026-05-06 23:24 | 38.18538 | 24.56678 | 14064 ft | 380 kts | 198° |
| 2026-05-06 23:24 | 38.16011 | 24.55725 | 13484 ft | 377 kts | 198° |
| 2026-05-06 23:25 | 38.13501 | 24.54780 | 12855 ft | 375 kts | 198° |
| 2026-05-06 23:25 | 38.11008 | 24.53844 | 12242 ft | 373 kts | 198° |
| 2026-05-06 23:25 | 38.08523 | 24.52913 | 11621 ft | 371 kts | 198° |
| 2026-05-06 23:25 | 38.06075 | 24.51940 | 10986 ft | 368 kts | 204° |
| 2026-05-06 23:26 | 38.04007 | 24.50183 | 10490 ft | 348 kts | 230° |
| 2026-05-06 23:26 | 38.02760 | 24.47749 | 10363 ft | 316 kts | 251° |
| 2026-05-06 23:26 | 38.02303 | 24.45154 | 10176 ft | 291 kts | 271° |
| 2026-05-06 23:26 | 38.02555 | 24.42686 | 9846 ft | 277 kts | 291° |
| 2026-05-06 23:27 | 38.03377 | 24.40510 | 9714 ft | 268 kts | 302° |
| 2026-05-06 23:27 | 38.04262 | 24.38520 | 9543 ft | 251 kts | 301° |
| 2026-05-06 23:27 | 38.05102 | 24.36611 | 9078 ft | 247 kts | 300° |
| 2026-05-06 23:27 | 38.05936 | 24.34712 | 8564 ft | 246 kts | 300° |
| 2026-05-06 23:28 | 38.06765 | 24.32825 | 8065 ft | 244 kts | 300° |
| 2026-05-06 23:28 | 38.07593 | 24.30940 | 7580 ft | 243 kts | 300° |
| 2026-05-06 23:28 | 38.08409 | 24.29084 | 7163 ft | 239 kts | 300° |
| 2026-05-06 23:28 | 38.09214 | 24.27251 | 6766 ft | 237 kts | 300° |
| 2026-05-06 23:29 | 38.10012 | 24.25430 | 6337 ft | 235 kts | 300° |
| 2026-05-06 23:29 | 38.10807 | 24.23610 | 5877 ft | 235 kts | 299° |
| 2026-05-06 23:29 | 38.11594 | 24.21810 | 5460 ft | 232 kts | 299° |
| 2026-05-06 23:29 | 38.12381 | 24.20018 | 5065 ft | 234 kts | 299° |
| 2026-05-06 23:30 | 38.13168 | 24.18198 | 4796 ft | 234 kts | 296° |
| 2026-05-06 23:30 | 38.13516 | 24.16220 | 4532 ft | 231 kts | 267° |
| 2026-05-06 23:30 | 38.13025 | 24.14332 | 4351 ft | 225 kts | 237° |
| 2026-05-06 23:30 | 38.11920 | 24.12985 | 4224 ft | 217 kts | 218° |
| 2026-05-06 23:31 | 38.10736 | 24.11861 | 4121 ft | 210 kts | 218° |
| 2026-05-06 23:31 | 38.09574 | 24.10753 | 3969 ft | 210 kts | 218° |
| 2026-05-06 23:31 | 38.08395 | 24.09626 | 3596 ft | 215 kts | 218° |
| 2026-05-06 23:31 | 38.07198 | 24.08485 | 3270 ft | 212 kts | 218° |
| 2026-05-06 23:32 | 38.06042 | 24.07381 | 2981 ft | 204 kts | 217° |
| 2026-05-06 23:32 | 38.04931 | 24.06319 | 2719 ft | 196 kts | 217° |
| 2026-05-06 23:32 | 38.03860 | 24.05296 | 2475 ft | 188 kts | 217° |
| 2026-05-06 23:32 | 38.02840 | 24.04321 | 2209 ft | 179 kts | 216° |
| 2026-05-06 23:33 | 38.01869 | 24.03394 | 1985 ft | 171 kts | 216° |
| 2026-05-06 23:33 | 38.00950 | 24.02516 | 1767 ft | 164 kts | 216° |
| 2026-05-06 23:33 | 38.00065 | 24.01671 | 1555 ft | 154 kts | 215° |
| 2026-05-06 23:33 | 37.99220 | 24.00865 | 1363 ft | 150 kts | 216° |
| 2026-05-06 23:34 | 37.98407 | 24.00089 | 1168 ft | 141 kts | 215° |
| 2026-05-06 23:34 | 37.97646 | 23.99363 | 987 ft | 134 kts | 214° |
| 2026-05-06 23:34 | 37.96910 | 23.98663 | 806 ft | 131 kts | 215° |
| 2026-05-06 23:34 | 37.96187 | 23.97973 | 638 ft | 131 kts | 213° |
| 2026-05-06 23:35 | 37.95461 | 23.97282 | 464 ft | 131 kts | 213° |
| 2026-05-06 23:35 | 37.94734 | 23.96590 | 316 ft | 129 kts | 215° |
| 2026-05-06 23:35 | 37.94285 | 23.96156 | 288 ft | 112 kts | 217° |
| 2026-05-06 23:35 | 37.93858 | 23.95743 | 280 ft | 40 kts | 217° |
| 2026-05-06 23:36 | 37.93755 | 23.95592 | 280 ft | 17 kts | 289° |
| 2026-05-06 23:36 | 37.93806 | 23.95506 | 293 ft | 8 kts | 310° |
| 2026-05-06 23:36 | 37.93831 | 23.95469 | 296 ft | 4 kts | 310° |
| 2026-05-06 23:36 | 37.93861 | 23.95422 | 298 ft | 10 kts | 308° |
| 2026-05-06 23:37 | 37.93889 | 23.95345 | 300 ft | 10 kts | 272° |
| 2026-05-06 23:37 | 37.93873 | 23.95274 | 300 ft | 6 kts | 252° |
| 2026-05-06 23:37 | 37.93854 | 23.95216 | 302 ft | 8 kts | 236° |
| 2026-05-06 23:37 | 37.93811 | 23.95162 | 303 ft | 10 kts | 216° |
| 2026-05-06 23:38 | 37.93760 | 23.95110 | 300 ft | 10 kts | 221° |
| 2026-05-06 23:38 | 37.93698 | 23.95044 | 303 ft | 13 kts | 217° |
| 2026-05-06 23:38 | 37.93643 | 23.94994 | 301 ft | 10 kts | 217° |
| 2026-05-06 23:38 | 37.93622 | 23.94974 | 301 ft | 2 kts | 218° |
| 2026-05-06 23:39 | 37.93607 | 23.94958 | 301 ft | 4 kts | 219° |
| 2026-05-06 23:39 | 37.93587 | 23.94939 | 302 ft | 1 kts | 216° |
| 2026-05-06 23:39 | 37.93576 | 23.94928 | 301 ft | 3 kts | 217° |
| 2026-05-06 23:39 | 37.93551 | 23.94903 | 301 ft | 6 kts | 219° |
| 2026-05-06 23:40 | 37.93526 | 23.94877 | 301 ft | 1 kts | 219° |
| 2026-05-06 23:40 | 37.93515 | 23.94866 | 301 ft | 3 kts | 220° |
| 2026-05-06 23:40 | 37.93491 | 23.94839 | 301 ft | 6 kts | 216° |
| 2026-05-06 23:40 | 37.93451 | 23.94805 | 302 ft | 8 kts | 216° |
| 2026-05-06 23:41 | 37.93432 | 23.94787 | 302 ft | 1 kts | 218° |
| 2026-05-06 23:41 | 37.93419 | 23.94773 | 301 ft | 4 kts | 219° |
| 2026-05-06 23:41 | 37.93392 | 23.94745 | 301 ft | 6 kts | 221° |
| 2026-05-06 23:41 | 37.93361 | 23.94713 | 302 ft | 0 kts | 216° |
| 2026-05-06 23:42 | 37.93352 | 23.94703 | 302 ft | 3 kts | 217° |
| 2026-05-06 23:42 | 37.93328 | 23.94679 | 301 ft | 6 kts | 219° |
| 2026-05-06 23:42 | 37.93307 | 23.94658 | 301 ft | 0 kts | 216° |
| 2026-05-06 23:42 | 37.93297 | 23.94649 | 301 ft | 3 kts | 217° |
| 2026-05-06 23:43 | 37.93286 | 23.94637 | 303 ft | 1 kts | 218° |
| 2026-05-06 23:43 | 37.93285 | 23.94636 | 303 ft | 0 kts | 218° |